Time;durP1;ratioP1;P1;durP2;ratioP2;P2;SDS_P1;SDS_P2;PMS_P1;PMS_P2;Temp;Humidity;BMP_temperature;BMP_pressure;BME280_temperature;BME280_humidity;BME280_pressure;Samples;Min_cycle;Max_cycle;Signal;HPM_P1;HPM_P2
2021/01/15 06:22:43;;;;;;;29.52;12.78;;;;;;;-9.34;72.31;98920.81;1821747;77;26461;-60
2021/01/15 06:25:30;;;;;;;37.67;16.42;;;;;;;-9.41;72.25;98931.58;1792121;80;21645;-61
2021/01/15 06:28:03;;;;;;;34.60;12.65;;;;;;;-9.36;72.49;98937.76;1793751;80;21739;-56
2021/01/15 06:30:34;;;;;;;24.98;10.43;;;;;;;-9.24;72.53;98947.02;1752957;80;21126;-60
2021/01/15 06:33:10;;;;;;;23.25;9.78;;;;;;;-9.09;72.52;98946.08;1752762;81;21329;-62
2021/01/15 06:35:41;;;;;;;56.55;24.50;;;;;;;-8.93;72.20;98948.47;1772422;80;21139;-63
2021/01/15 06:38:18;;;;;;;17.85;8.78;;;;;;;-8.77;71.80;98953.34;1767586;80;21152;-61
2021/01/15 06:40:56;;;;;;;34.15;15.53;;;;;;;-8.56;71.31;98958.09;1828389;77;22196;-61
2021/01/15 06:43:34;;;;;;;26.75;11.45;;;;;;;-8.48;71.10;98958.62;1793450;78;21569;-63
2021/01/15 06:46:04;;;;;;;24.87;11.03;;;;;;;-8.32;70.71;98956.31;1806356;78;21217;-63
2021/01/15 06:48:38;;;;;;;32.17;14.60;;;;;;;-8.22;70.31;98965.20;1792655;78;21145;-61
2021/01/15 06:51:10;;;;;;;34.50;16.07;;;;;;;-8.14;70.08;98959.38;1794886;78;21308;-61
2021/01/15 06:53:41;;;;;;;27.02;12.13;;;;;;;-8.04;69.52;98962.84;1799097;78;21637;-62
2021/01/15 06:56:15;;;;;;;28.92;13.65;;;;;;;-7.98;68.79;98957.53;1804894;78;21181;-65
2021/01/15 06:58:44;;;;;;;29.67;13.38;;;;;;;-7.96;68.32;98954.04;1794070;78;21142;-59
2021/01/15 07:01:26;;;;;;;36.60;15.63;;;;;;;-7.96;68.05;98955.31;1794853;78;21553;-61
2021/01/15 07:04:24;;;;;;;34.05;14.90;;;;;;;-7.95;67.91;98954.45;1797943;78;21134;-58
2021/01/15 07:07:07;;;;;;;26.60;11.95;;;;;;;-7.90;67.81;98950.44;1749642;81;21164;-60
2021/01/15 07:09:36;;;;;;;25.52;10.88;;;;;;;-7.96;67.50;98957.02;1745281;81;21604;-61
2021/01/15 07:12:08;;;;;;;28.45;12.03;;;;;;;-7.95;67.24;98953.19;1731414;81;21169;-62
2021/01/15 07:14:56;;;;;;;55.05;25.25;;;;;;;-7.92;67.02;98952.22;1702536;82;21159;-60
2021/01/15 07:17:35;;;;;;;66.57;32.48;;;;;;;-7.89;66.95;98950.41;1724356;81;21138;-58
2021/01/15 07:20:23;;;;;;;42.58;20.27;;;;;;;-7.80;67.02;98964.86;1734028;81;21280;-60
2021/01/15 07:22:54;;;;;;;31.17;15.93;;;;;;;-7.71;66.84;98960.67;1726025;81;21158;-57
2021/01/15 07:25:22;;;;;;;30.88;15.35;;;;;;;-7.74;66.53;98967.97;1724395;81;21157;-60
2021/01/15 07:27:53;;;;;;;21.87;10.20;;;;;;;-7.70;66.57;98963.59;1712082;83;21557;-60
2021/01/15 07:30:29;;;;;;;27.00;13.38;;;;;;;-7.72;66.25;98972.98;1718422;81;21177;-60
2021/01/15 07:32:58;;;;;;;24.63;11.25;;;;;;;-7.76;66.22;98967.64;1737955;81;21723;-59
2021/01/15 07:35:29;;;;;;;25.95;12.07;;;;;;;-7.69;66.20;98974.14;1742218;81;21635;-59
2021/01/15 07:38:16;;;;;;;22.55;10.95;;;;;;;-7.64;65.66;98984.90;1680892;83;21149;-58
2021/01/15 07:40:46;;;;;;;18.73;8.30;;;;;;;-7.66;65.17;98984.97;1714461;81;21201;-59
2021/01/15 07:43:31;;;;;;;20.82;8.03;;;;;;;-7.65;65.11;98990.86;1716211;81;21641;-58
2021/01/15 07:46:07;;;;;;;20.02;8.98;;;;;;;-7.65;65.01;98985.80;1710988;81;21197;-61
2021/01/15 07:48:37;;;;;;;17.87;8.65;;;;;;;-7.70;64.88;98977.13;1744811;81;21680;-61
2021/01/15 07:51:12;;;;;;;20.48;9.98;;;;;;;-7.73;64.70;98974.69;1745225;81;21597;-60
2021/01/15 07:53:43;;;;;;;23.52;10.68;;;;;;;-7.74;64.84;98976.03;1733407;81;21569;-57
2021/01/15 07:56:12;;;;;;;22.15;9.80;;;;;;;-7.68;64.90;98979.59;1761569;81;21534;-61
2021/01/15 07:58:45;;;;;;;24.43;8.98;;;;;;;-7.67;64.88;98973.18;1743182;81;21691;-62
2021/01/15 08:01:20;;;;;;;25.23;11.18;;;;;;;-7.66;64.68;98968.48;1763658;81;21166;-57
2021/01/15 08:03:57;;;;;;;32.63;11.80;;;;;;;-7.65;64.57;98971.39;1751064;81;21139;-61
2021/01/15 08:06:28;;;;;;;29.87;12.30;;;;;;;-7.60;64.49;98965.70;1754634;81;21175;-60
2021/01/15 08:09:04;;;;;;;20.52;9.83;;;;;;;-7.60;64.09;98970.77;1762721;80;21622;-65
2021/01/15 08:11:35;;;;;;;34.27;15.80;;;;;;;-7.62;64.08;98970.02;1762189;80;21164;-64
2021/01/15 08:14:23;;;;;;;34.98;14.18;;;;;;;-7.58;64.41;98970.70;1762460;81;21302;-57
2021/01/15 08:16:52;;;;;;;28.73;13.13;;;;;;;-7.51;64.24;98973.39;1760490;81;21152;-61
2021/01/15 08:19:21;;;;;;;32.35;14.65;;;;;;;-7.45;64.35;98978.22;1763192;81;21523;-64
2021/01/15 08:21:51;;;;;;;25.70;11.03;;;;;;;-7.34;64.02;98976.04;1759055;80;21618;-60
2021/01/15 08:24:22;;;;;;;29.10;12.98;;;;;;;-7.21;63.69;98982.70;1756562;80;21165;-60
2021/01/15 08:26:55;;;;;;;22.42;10.53;;;;;;;-7.16;63.08;98977.44;1752405;81;21587;-61
2021/01/15 08:29:28;;;;;;;26.65;11.93;;;;;;;-7.12;62.91;98981.05;1733309;83;21305;-60
2021/01/15 08:31:58;;;;;;;23.05;9.60;;;;;;;-7.12;62.82;98977.25;1733142;83;21168;-57
2021/01/15 08:34:33;;;;;;;40.83;15.32;;;;;;;-7.20;62.79;98970.41;1743528;80;21149;-63
2021/01/15 08:37:07;;;;;;;27.60;11.28;;;;;;;-7.21;62.77;98966.20;1736703;81;21172;-60
2021/01/15 08:39:49;;;;;;;96.42;41.98;;;;;;;-7.21;62.97;98967.47;1742909;82;21169;-67
2021/01/15 08:42:18;;;;;;;43.75;18.75;;;;;;;-7.12;62.90;98967.09;1743500;81;21608;-70
2021/01/15 08:44:48;;;;;;;27.27;12.70;;;;;;;-7.03;62.66;98960.78;1744260;82;21604;-62
2021/01/15 08:47:17;;;;;;;27.48;12.30;;;;;;;-6.97;62.53;98964.78;1741072;81;21132;-65
2021/01/15 08:49:56;;;;;;;25.15;11.00;;;;;;;-6.94;62.43;98966.75;1714874;84;21213;-59
2021/01/15 08:52:30;;;;;;;21.42;9.75;;;;;;;-6.93;62.31;98977.73;1732206;81;21216;-62
2021/01/15 08:54:59;;;;;;;43.73;19.73;;;;;;;-6.90;62.25;98978.41;1736377;81;21129;-60
2021/01/15 08:57:28;;;;;;;35.43;15.90;;;;;;;-6.89;62.29;98971.20;1735655;81;21600;-64
2021/01/15 09:00:11;;;;;;;23.35;10.13;;;;;;;-6.80;62.23;98974.59;1734182;81;21179;-62
2021/01/15 09:02:42;;;;;;;29.92;13.13;;;;;;;-6.70;61.90;98981.83;1712364;82;21175;-60
2021/01/15 09:05:18;;;;;;;24.87;10.80;;;;;;;-6.64;61.77;98977.30;1737519;81;21212;-62
2021/01/15 09:07:49;;;;;;;24.52;9.08;;;;;;;-6.59;61.51;98982.15;1728421;81;21193;-62
2021/01/15 09:10:18;;;;;;;24.40;9.35;;;;;;;-6.63;61.47;98978.94;1747232;81;21286;-64
2021/01/15 09:12:48;;;;;;;28.45;11.30;;;;;;;-6.75;61.58;98990.09;1738717;82;21693;-64
2021/01/15 09:15:22;;;;;;;27.15;10.60;;;;;;;-6.76;61.90;98999.88;1726052;83;21618;-58
2021/01/15 09:17:50;;;;;;;21.73;9.20;;;;;;;-6.75;61.62;99012.95;1733408;82;21203;-64
2021/01/15 09:20:20;;;;;;;25.85;9.90;;;;;;;-6.79;61.49;99024.50;1728381;82;21119;-63
2021/01/15 09:22:48;;;;;;;35.90;13.95;;;;;;;-6.73;61.66;99036.11;1738856;81;21141;-64
2021/01/15 09:25:17;;;;;;;23.27;9.83;;;;;;;-6.62;61.64;99031.84;1764783;81;21541;-63
2021/01/15 09:27:45;;;;;;;31.15;12.45;;;;;;;-6.53;61.48;99019.99;1764804;81;21653;-62
2021/01/15 09:30:15;;;;;;;34.03;12.70;;;;;;;-6.42;61.32;99018.26;1764455;81;21161;-60
2021/01/15 09:32:45;;;;;;;28.92;9.93;;;;;;;-6.40;61.00;99021.55;1742713;81;21174;-64
2021/01/15 09:35:19;;;;;;;50.43;25.68;;;;;;;-6.40;60.72;99024.91;1736434;82;21609;-62
2021/01/15 09:37:49;;;;;;;42.45;17.52;;;;;;;-6.42;60.58;99019.53;1739896;82;21142;-63
2021/01/15 09:40:18;;;;;;;24.95;11.08;;;;;;;-6.44;60.29;99016.23;1739422;82;21577;-61
2021/01/15 09:42:51;;;;;;;26.45;11.15;;;;;;;-6.47;60.64;99016.36;1739725;82;21146;-59
2021/01/15 09:45:23;;;;;;;39.25;15.63;;;;;;;-6.53;60.84;99017.45;1738577;82;21142;-62
2021/01/15 09:47:52;;;;;;;26.25;11.05;;;;;;;-6.47;60.90;99018.45;1733108;82;21589;-64
2021/01/15 09:50:22;;;;;;;26.90;13.05;;;;;;;-6.33;60.83;99026.77;1715607;82;21154;-62
2021/01/15 09:52:50;;;;;;;25.43;11.40;;;;;;;-6.19;60.71;99022.32;1732406;82;21593;-64
2021/01/15 09:55:19;;;;;;;30.17;9.33;;;;;;;-6.09;60.48;99014.63;1746924;82;21135;-58
2021/01/15 09:57:48;;;;;;;21.95;9.38;;;;;;;-6.06;60.21;99005.61;1723576;82;21597;-60
2021/01/15 10:00:18;;;;;;;32.98;11.50;;;;;;;-6.09;60.15;99024.35;1721274;83;21605;-64
